Terminal Aerodrome Forecast
Issued by NWS Sioux Falls, SD

Home | Current Version | Previous Version | Text Only | Print | Product List | Glossary On
Versions: 1 2 3 4 5 6 7 8 9 10 11 12 13 14 15 16 17 18 19 20 21 22 23 24 25 26 27 28 29 30 31 32 33 34 35 36 37 38 39 40
000
FTUS43 KFSD 261400 AAA
TAFSUX
TAF AMD
KSUX 261424Z 2614/2712 03010KT P6SM BKN080
      TEMPO 2614/2616 -TSRA BKN060CB
     FM261700 05010KT P6SM BKN080
     FM270200 07005KT P6SM OVC060
      TEMPO 2703/2706 5SM TSRA OVC035CB
     FM270600 07006KT 5SM TSRA BKN025CB=

USA.gov is the U.S. government's official web portal to all federal, state and local government web resources and services.